sensor_id;sensor_type;location;lat;lon;timestamp;temperature;humidity
72288;SHT31;60221;45.696;16.076;2022-07-21T00:02:14;23.02;64.71
72288;SHT31;60221;45.696;16.076;2022-07-21T00:04:40;23.78;61.18
72288;SHT31;60221;45.696;16.076;2022-07-21T00:07:06;24.11;59.46
72288;SHT31;60221;45.696;16.076;2022-07-21T00:09:32;23.91;56.62
72288;SHT31;60221;45.696;16.076;2022-07-21T00:12:02;23.30;56.17
72288;SHT31;60221;45.696;16.076;2022-07-21T00:14:28;22.80;56.69
72288;SHT31;60221;45.696;16.076;2022-07-21T00:16:54;22.47;57.24
72288;SHT31;60221;45.696;16.076;2022-07-21T00:19:20;22.23;57.73
72288;SHT31;60221;45.696;16.076;2022-07-21T00:21:46;22.03;58.12
72288;SHT31;60221;45.696;16.076;2022-07-21T00:24:12;21.91;58.42
72288;SHT31;60221;45.696;16.076;2022-07-21T00:26:38;21.74;58.67
72288;SHT31;60221;45.696;16.076;2022-07-21T00:29:04;21.58;58.83
72288;SHT31;60221;45.696;16.076;2022-07-21T00:31:30;21.42;59.11
72288;SHT31;60221;45.696;16.076;2022-07-21T00:33:56;21.30;59.49
72288;SHT31;60221;45.696;16.076;2022-07-21T00:36:22;21.17;59.54
72288;SHT31;60221;45.696;16.076;2022-07-21T00:38:49;21.09;59.66
72288;SHT31;60221;45.696;16.076;2022-07-21T00:41:15;20.97;59.78
72288;SHT31;60221;45.696;16.076;2022-07-21T00:43:41;20.84;59.90
72288;SHT31;60221;45.696;16.076;2022-07-21T00:46:08;20.78;60.18
72288;SHT31;60221;45.696;16.076;2022-07-21T00:48:34;20.66;60.34
72288;SHT31;60221;45.696;16.076;2022-07-21T00:51:00;20.59;60.53
72288;SHT31;60221;45.696;16.076;2022-07-21T00:53:26;20.46;60.72
72288;SHT31;60221;45.696;16.076;2022-07-21T00:55:52;20.39;61.05
72288;SHT31;60221;45.696;16.076;2022-07-21T00:58:19;20.32;61.08
72288;SHT31;60221;45.696;16.076;2022-07-21T01:00:46;20.28;61.21
72288;SHT31;60221;45.696;16.076;2022-07-21T01:03:12;20.21;61.32
72288;SHT31;60221;45.696;16.076;2022-07-21T01:05:38;20.15;61.41
72288;SHT31;60221;45.696;16.076;2022-07-21T01:08:06;20.11;61.56
72288;SHT31;60221;45.696;16.076;2022-07-21T01:10:33;20.04;61.72
72288;SHT31;60221;45.696;16.076;2022-07-21T01:13:01;20.00;61.76
72288;SHT31;60221;45.696;16.076;2022-07-21T01:15:28;19.96;61.93
72288;SHT31;60221;45.696;16.076;2022-07-21T01:17:54;19.91;62.09
72288;SHT31;60221;45.696;16.076;2022-07-21T01:20:23;19.88;62.26
72288;SHT31;60221;45.696;16.076;2022-07-21T01:22:54;20.83;66.47
72288;SHT31;60221;45.696;16.076;2022-07-21T01:25:22;22.41;65.24
72288;SHT31;60221;45.696;16.076;2022-07-21T01:27:49;23.05;59.71
72288;SHT31;60221;45.696;16.076;2022-07-21T01:30:16;22.91;56.52
72288;SHT31;60221;45.696;16.076;2022-07-21T01:32:43;22.30;55.78
72288;SHT31;60221;45.696;16.076;2022-07-21T01:35:13;21.83;56.22
72288;SHT31;60221;45.696;16.076;2022-07-21T01:37:43;21.51;56.62
72288;SHT31;60221;45.696;16.076;2022-07-21T01:40:12;21.23;57.18
72288;SHT31;60221;45.696;16.076;2022-07-21T01:42:57;20.99;57.68
72288;SHT31;60221;45.696;16.076;2022-07-21T01:45:24;20.82;58.15
72288;SHT31;60221;45.696;16.076;2022-07-21T01:47:50;20.63;58.55
72288;SHT31;60221;45.696;16.076;2022-07-21T01:50:17;20.51;59.12
72288;SHT31;60221;45.696;16.076;2022-07-21T01:52:44;20.38;59.37
72288;SHT31;60221;45.696;16.076;2022-07-21T01:55:11;20.25;59.61
72288;SHT31;60221;45.696;16.076;2022-07-21T01:57:37;20.17;59.94
72288;SHT31;60221;45.696;16.076;2022-07-21T02:00:06;20.07;60.14
72288;SHT31;60221;45.696;16.076;2022-07-21T02:02:33;19.97;60.43
72288;SHT31;60221;45.696;16.076;2022-07-21T02:04:59;19.93;60.83
72288;SHT31;60221;45.696;16.076;2022-07-21T02:07:26;19.83;60.94
72288;SHT31;60221;45.696;16.076;2022-07-21T02:09:52;19.74;61.20
72288;SHT31;60221;45.696;16.076;2022-07-21T02:12:18;19.68;61.44
72288;SHT31;60221;45.696;16.076;2022-07-21T02:14:44;19.62;61.54
72288;SHT31;60221;45.696;16.076;2022-07-21T02:17:10;19.55;61.73
72288;SHT31;60221;45.696;16.076;2022-07-21T02:19:36;19.48;61.86
72288;SHT31;60221;45.696;16.076;2022-07-21T02:22:02;19.41;62.08
72288;SHT31;60221;45.696;16.076;2022-07-21T02:24:28;19.36;62.25
72288;SHT31;60221;45.696;16.076;2022-07-21T02:26:54;20.28;66.35
72288;SHT31;60221;45.696;16.076;2022-07-21T02:29:20;21.47;64.37
72288;SHT31;60221;45.696;16.076;2022-07-21T02:31:47;22.14;62.74
72288;SHT31;60221;45.696;16.076;2022-07-21T02:34:13;22.78;60.20
72288;SHT31;60221;45.696;16.076;2022-07-21T02:36:39;22.72;55.67
72288;SHT31;60221;45.696;16.076;2022-07-21T02:39:05;22.06;55.19
72288;SHT31;60221;45.696;16.076;2022-07-21T02:41:32;21.52;55.67
72288;SHT31;60221;45.696;16.076;2022-07-21T02:43:58;21.11;56.35
72288;SHT31;60221;45.696;16.076;2022-07-21T02:46:23;20.84;57.03
72288;SHT31;60221;45.696;16.076;2022-07-21T02:48:49;20.65;57.52
72288;SHT31;60221;45.696;16.076;2022-07-21T02:51:15;20.44;58.21
72288;SHT31;60221;45.696;16.076;2022-07-21T02:53:42;20.24;58.56
72288;SHT31;60221;45.696;16.076;2022-07-21T02:56:08;20.07;59.17
72288;SHT31;60221;45.696;16.076;2022-07-21T02:58:34;19.96;59.66
72288;SHT31;60221;45.696;16.076;2022-07-21T03:01:05;19.80;60.04
72288;SHT31;60221;45.696;16.076;2022-07-21T03:03:35;19.66;60.45
72288;SHT31;60221;45.696;16.076;2022-07-21T03:06:03;19.56;60.82
72288;SHT31;60221;45.696;16.076;2022-07-21T03:08:31;19.44;61.09
72288;SHT31;60221;45.696;16.076;2022-07-21T03:10:57;19.36;61.40
72288;SHT31;60221;45.696;16.076;2022-07-21T03:13:23;19.29;61.53
72288;SHT31;60221;45.696;16.076;2022-07-21T03:15:50;19.25;61.72
72288;SHT31;60221;45.696;16.076;2022-07-21T03:18:16;19.18;61.96
72288;SHT31;60221;45.696;16.076;2022-07-21T03:20:44;19.11;62.26
72288;SHT31;60221;45.696;16.076;2022-07-21T03:23:11;19.77;64.37
72288;SHT31;60221;45.696;16.076;2022-07-21T03:25:37;21.31;66.61
72288;SHT31;60221;45.696;16.076;2022-07-21T03:28:04;22.50;61.57
72288;SHT31;60221;45.696;16.076;2022-07-21T03:30:32;23.16;58.69
72288;SHT31;60221;45.696;16.076;2022-07-21T03:32:59;22.94;53.99
72288;SHT31;60221;45.696;16.076;2022-07-21T03:35:25;22.16;53.88
72288;SHT31;60221;45.696;16.076;2022-07-21T03:37:58;21.56;54.45
72288;SHT31;60221;45.696;16.076;2022-07-21T03:40:30;21.11;55.27
72288;SHT31;60221;45.696;16.076;2022-07-21T03:43:00;20.78;55.98
72288;SHT31;60221;45.696;16.076;2022-07-21T03:45:28;20.58;56.62
72288;SHT31;60221;45.696;16.076;2022-07-21T03:48:01;20.38;57.12
72288;SHT31;60221;45.696;16.076;2022-07-21T03:50:29;20.23;57.95
72288;SHT31;60221;45.696;16.076;2022-07-21T03:52:55;20.13;58.35
72288;SHT31;60221;45.696;16.076;2022-07-21T03:55:22;20.03;58.64
72288;SHT31;60221;45.696;16.076;2022-07-21T03:57:56;19.94;59.06
72288;SHT31;60221;45.696;16.076;2022-07-21T04:00:37;19.90;59.30
72288;SHT31;60221;45.696;16.076;2022-07-21T04:03:05;19.84;59.65
72288;SHT31;60221;45.696;16.076;2022-07-21T04:05:33;19.76;59.98
72288;SHT31;60221;45.696;16.076;2022-07-21T04:08:01;19.76;60.29
72288;SHT31;60221;45.696;16.076;2022-07-21T04:10:32;19.73;60.61
72288;SHT31;60221;45.696;16.076;2022-07-21T04:13:02;19.72;60.79
72288;SHT31;60221;45.696;16.076;2022-07-21T04:15:28;19.70;60.89
72288;SHT31;60221;45.696;16.076;2022-07-21T04:17:55;19.73;61.13
72288;SHT31;60221;45.696;16.076;2022-07-21T04:20:21;19.74;61.23
72288;SHT31;60221;45.696;16.076;2022-07-21T04:22:50;19.77;61.38
72288;SHT31;60221;45.696;16.076;2022-07-21T04:25:18;19.88;61.56
72288;SHT31;60221;45.696;16.076;2022-07-21T04:27:47;20.13;61.89
72288;SHT31;60221;45.696;16.076;2022-07-21T04:30:18;20.48;62.07
72288;SHT31;60221;45.696;16.076;2022-07-21T04:32:45;20.93;61.72
72288;SHT31;60221;45.696;16.076;2022-07-21T04:35:13;21.40;61.68
72288;SHT31;60221;45.696;16.076;2022-07-21T04:37:40;21.76;60.87
72288;SHT31;60221;45.696;16.076;2022-07-21T04:40:10;22.17;60.12
72288;SHT31;60221;45.696;16.076;2022-07-21T04:42:37;22.68;59.85
72288;SHT31;60221;45.696;16.076;2022-07-21T04:45:07;23.16;59.04
72288;SHT31;60221;45.696;16.076;2022-07-21T04:47:44;23.67;57.87
72288;SHT31;60221;45.696;16.076;2022-07-21T04:50:12;24.15;57.06
72288;SHT31;60221;45.696;16.076;2022-07-21T04:52:38;24.64;56.15
72288;SHT31;60221;45.696;16.076;2022-07-21T04:55:06;25.14;54.87
72288;SHT31;60221;45.696;16.076;2022-07-21T04:57:39;25.60;53.86
72288;SHT31;60221;45.696;16.076;2022-07-21T05:00:10;26.05;52.66
72288;SHT31;60221;45.696;16.076;2022-07-21T05:02:38;26.48;51.25
72288;SHT31;60221;45.696;16.076;2022-07-21T05:05:06;26.87;49.87
72288;SHT31;60221;45.696;16.076;2022-07-21T05:07:33;27.24;48.98
72288;SHT31;60221;45.696;16.076;2022-07-21T05:09:59;27.58;48.06
72288;SHT31;60221;45.696;16.076;2022-07-21T05:12:26;27.89;47.41
72288;SHT31;60221;45.696;16.076;2022-07-21T05:14:52;28.16;46.63
72288;SHT31;60221;45.696;16.076;2022-07-21T05:17:18;28.45;46.03
72288;SHT31;60221;45.696;16.076;2022-07-21T05:19:44;28.76;44.86
72288;SHT31;60221;45.696;16.076;2022-07-21T05:22:12;29.07;44.23
72288;SHT31;60221;45.696;16.076;2022-07-21T05:24:38;29.38;43.48
72288;SHT31;60221;45.696;16.076;2022-07-21T05:27:04;29.63;42.75
72288;SHT31;60221;45.696;16.076;2022-07-21T05:29:30;29.88;42.21
72288;SHT31;60221;45.696;16.076;2022-07-21T05:31:56;30.16;41.72
72288;SHT31;60221;45.696;16.076;2022-07-21T05:34:22;30.39;41.43
72288;SHT31;60221;45.696;16.076;2022-07-21T05:36:48;30.60;41.13
72288;SHT31;60221;45.696;16.076;2022-07-21T05:39:14;30.81;40.27
72288;SHT31;60221;45.696;16.076;2022-07-21T05:41:40;31.02;40.24
72288;SHT31;60221;45.696;16.076;2022-07-21T05:44:06;31.19;39.37
72288;SHT31;60221;45.696;16.076;2022-07-21T05:46:32;31.33;39.09
72288;SHT31;60221;45.696;16.076;2022-07-21T05:48:58;31.46;38.91
72288;SHT31;60221;45.696;16.076;2022-07-21T05:51:24;31.62;39.37
72288;SHT31;60221;45.696;16.076;2022-07-21T05:53:50;31.63;38.61
72288;SHT31;60221;45.696;16.076;2022-07-21T05:56:16;31.73;38.11
72288;SHT31;60221;45.696;16.076;2022-07-21T05:58:42;31.81;37.94
72288;SHT31;60221;45.696;16.076;2022-07-21T06:01:09;31.87;37.68
72288;SHT31;60221;45.696;16.076;2022-07-21T06:03:45;31.98;37.96
72288;SHT31;60221;45.696;16.076;2022-07-21T06:06:15;32.07;37.44
72288;SHT31;60221;45.696;16.076;2022-07-21T06:08:48;32.31;37.31
72288;SHT31;60221;45.696;16.076;2022-07-21T06:11:18;32.39;37.22
72288;SHT31;60221;45.696;16.076;2022-07-21T06:13:46;32.58;37.07
72288;SHT31;60221;45.696;16.076;2022-07-21T06:16:13;32.52;36.38
72288;SHT31;60221;45.696;16.076;2022-07-21T06:18:39;32.36;36.27
72288;SHT31;60221;45.696;16.076;2022-07-21T06:21:06;32.31;36.19
72288;SHT31;60221;45.696;16.076;2022-07-21T06:23:32;32.35;36.28
72288;SHT31;60221;45.696;16.076;2022-07-21T06:25:58;32.48;36.27
72288;SHT31;60221;45.696;16.076;2022-07-21T06:28:25;32.52;36.30
72288;SHT31;60221;45.696;16.076;2022-07-21T06:30:55;32.51;36.11
72288;SHT31;60221;45.696;16.076;2022-07-21T06:33:20;32.56;35.83
72288;SHT31;60221;45.696;16.076;2022-07-21T06:35:46;32.66;36.13
72288;SHT31;60221;45.696;16.076;2022-07-21T06:38:12;32.70;35.64
72288;SHT31;60221;45.696;16.076;2022-07-21T06:40:38;32.77;35.10
72288;SHT31;60221;45.696;16.076;2022-07-21T06:43:04;32.73;35.47
72288;SHT31;60221;45.696;16.076;2022-07-21T06:45:31;32.67;35.48
72288;SHT31;60221;45.696;16.076;2022-07-21T06:48:04;32.72;35.31
72288;SHT31;60221;45.696;16.076;2022-07-21T06:50:31;32.90;35.05
72288;SHT31;60221;45.696;16.076;2022-07-21T06:52:57;32.91;34.45
72288;SHT31;60221;45.696;16.076;2022-07-21T06:55:23;32.86;34.74
72288;SHT31;60221;45.696;16.076;2022-07-21T06:57:50;32.89;34.45
72288;SHT31;60221;45.696;16.076;2022-07-21T07:00:18;33.01;33.96
72288;SHT31;60221;45.696;16.076;2022-07-21T07:02:44;32.99;34.13
72288;SHT31;60221;45.696;16.076;2022-07-21T07:05:11;33.07;34.57
72288;SHT31;60221;45.696;16.076;2022-07-21T07:07:37;33.09;34.60
72288;SHT31;60221;45.696;16.076;2022-07-21T07:10:06;33.21;34.32
72288;SHT31;60221;45.696;16.076;2022-07-21T07:12:32;33.21;33.87
72288;SHT31;60221;45.696;16.076;2022-07-21T07:14:58;33.22;33.96
72288;SHT31;60221;45.696;16.076;2022-07-21T07:17:24;33.24;34.05
72288;SHT31;60221;45.696;16.076;2022-07-21T07:19:51;33.30;33.83
72288;SHT31;60221;45.696;16.076;2022-07-21T07:22:17;33.30;33.83
72288;SHT31;60221;45.696;16.076;2022-07-21T07:24:44;33.37;33.33
72288;SHT31;60221;45.696;16.076;2022-07-21T07:27:10;33.49;33.47
72288;SHT31;60221;45.696;16.076;2022-07-21T07:29:36;33.59;33.45
72288;SHT31;60221;45.696;16.076;2022-07-21T07:32:02;33.72;33.07
72288;SHT31;60221;45.696;16.076;2022-07-21T07:34:28;33.86;32.66
72288;SHT31;60221;45.696;16.076;2022-07-21T07:36:54;34.03;32.10
72288;SHT31;60221;45.696;16.076;2022-07-21T07:39:21;34.10;31.86
72288;SHT31;60221;45.696;16.076;2022-07-21T07:41:47;34.03;31.77
72288;SHT31;60221;45.696;16.076;2022-07-21T07:44:13;33.96;32.16
72288;SHT31;60221;45.696;16.076;2022-07-21T07:46:39;33.86;31.71
72288;SHT31;60221;45.696;16.076;2022-07-21T07:49:08;33.61;31.78
72288;SHT31;60221;45.696;16.076;2022-07-21T07:51:35;33.51;31.66
72288;SHT31;60221;45.696;16.076;2022-07-21T07:54:01;33.42;31.76
72288;SHT31;60221;45.696;16.076;2022-07-21T07:56:29;33.40;31.65
72288;SHT31;60221;45.696;16.076;2022-07-21T07:58:56;33.38;31.39
72288;SHT31;60221;45.696;16.076;2022-07-21T08:01:22;33.31;31.85
72288;SHT31;60221;45.696;16.076;2022-07-21T08:03:48;33.27;31.85
72288;SHT31;60221;45.696;16.076;2022-07-21T08:06:14;33.22;31.89
72288;SHT31;60221;45.696;16.076;2022-07-21T08:08:41;33.13;32.14
72288;SHT31;60221;45.696;16.076;2022-07-21T08:11:07;33.07;32.19
72288;SHT31;60221;45.696;16.076;2022-07-21T08:13:33;33.03;32.66
72288;SHT31;60221;45.696;16.076;2022-07-21T08:16:00;33.09;31.89
72288;SHT31;60221;45.696;16.076;2022-07-21T08:18:26;33.10;32.23
72288;SHT31;60221;45.696;16.076;2022-07-21T08:20:53;33.16;32.25
72288;SHT31;60221;45.696;16.076;2022-07-21T08:23:19;33.18;31.96
72288;SHT31;60221;45.696;16.076;2022-07-21T08:25:45;33.16;31.70
72288;SHT31;60221;45.696;16.076;2022-07-21T08:28:12;33.14;31.48
72288;SHT31;60221;45.696;16.076;2022-07-21T08:30:38;33.14;31.39
72288;SHT31;60221;45.696;16.076;2022-07-21T08:33:05;33.10;31.53
72288;SHT31;60221;45.696;16.076;2022-07-21T08:35:31;33.04;31.67
72288;SHT31;60221;45.696;16.076;2022-07-21T08:38:02;32.97;31.48
72288;SHT31;60221;45.696;16.076;2022-07-21T08:40:32;32.90;31.49
72288;SHT31;60221;45.696;16.076;2022-07-21T08:43:00;32.91;31.22
72288;SHT31;60221;45.696;16.076;2022-07-21T08:45:27;32.91;31.81
72288;SHT31;60221;45.696;16.076;2022-07-21T08:47:55;32.96;31.49
72288;SHT31;60221;45.696;16.076;2022-07-21T08:50:26;32.96;31.94
72288;SHT31;60221;45.696;16.076;2022-07-21T08:52:52;33.06;32.31
72288;SHT31;60221;45.696;16.076;2022-07-21T08:55:19;33.11;31.87
72288;SHT31;60221;45.696;16.076;2022-07-21T08:57:45;33.18;32.00
72288;SHT31;60221;45.696;16.076;2022-07-21T09:00:12;33.18;31.60
72288;SHT31;60221;45.696;16.076;2022-07-21T09:02:38;33.18;31.20
72288;SHT31;60221;45.696;16.076;2022-07-21T09:05:08;33.16;31.07
72288;SHT31;60221;45.696;16.076;2022-07-21T09:07:53;33.18;30.95
72288;SHT31;60221;45.696;16.076;2022-07-21T09:10:27;33.17;31.22
72288;SHT31;60221;45.696;16.076;2022-07-21T09:13:01;33.14;31.55
72288;SHT31;60221;45.696;16.076;2022-07-21T09:15:30;33.10;31.79
72288;SHT31;60221;45.696;16.076;2022-07-21T09:18:14;33.14;31.33
72288;SHT31;60221;45.696;16.076;2022-07-21T09:20:51;33.10;31.08
72288;SHT31;60221;45.696;16.076;2022-07-21T09:23:21;33.11;30.66
72288;SHT31;60221;45.696;16.076;2022-07-21T09:25:52;33.10;30.41
72288;SHT31;60221;45.696;16.076;2022-07-21T09:28:29;33.07;31.03
72288;SHT31;60221;45.696;16.076;2022-07-21T09:31:06;33.14;31.33
72288;SHT31;60221;45.696;16.076;2022-07-21T09:33:37;33.24;31.03
72288;SHT31;60221;45.696;16.076;2022-07-21T09:36:11;33.35;30.84
72288;SHT31;60221;45.696;16.076;2022-07-21T09:38:50;33.47;30.87
72288;SHT31;60221;45.696;16.076;2022-07-21T09:41:21;33.61;30.81
72288;SHT31;60221;45.696;16.076;2022-07-21T09:43:52;33.68;30.41
72288;SHT31;60221;45.696;16.076;2022-07-21T09:46:26;33.73;30.84
72288;SHT31;60221;45.696;16.076;2022-07-21T09:48:57;33.79;30.90
72288;SHT31;60221;45.696;16.076;2022-07-21T09:51:32;33.77;30.84
72288;SHT31;60221;45.696;16.076;2022-07-21T09:54:06;33.79;29.56
72288;SHT31;60221;45.696;16.076;2022-07-21T09:56:40;33.75;30.08
72288;SHT31;60221;45.696;16.076;2022-07-21T09:59:11;33.72;30.28
72288;SHT31;60221;45.696;16.076;2022-07-21T10:01:38;33.65;29.97
72288;SHT31;60221;45.696;16.076;2022-07-21T10:04:06;33.62;30.48
72288;SHT31;60221;45.696;16.076;2022-07-21T10:06:37;33.69;29.99
72288;SHT31;60221;45.696;16.076;2022-07-21T10:09:07;33.75;29.83
72288;SHT31;60221;45.696;16.076;2022-07-21T10:11:33;33.79;30.17
72288;SHT31;60221;45.696;16.076;2022-07-21T10:14:02;33.88;30.25
72288;SHT31;60221;45.696;16.076;2022-07-21T10:16:28;33.95;29.80
72288;SHT31;60221;45.696;16.076;2022-07-21T10:19:14;33.97;29.91
72288;SHT31;60221;45.696;16.076;2022-07-21T10:21:51;34.02;29.31
72288;SHT31;60221;45.696;16.076;2022-07-21T10:24:16;34.02;28.88
72288;SHT31;60221;45.696;16.076;2022-07-21T10:27:11;34.03;29.02
72288;SHT31;60221;45.696;16.076;2022-07-21T10:29:58;33.96;29.00
72288;SHT31;60221;45.696;16.076;2022-07-21T10:32:34;33.99;29.37
72288;SHT31;60221;45.696;16.076;2022-07-21T10:37:48;34.10;29.87
72288;SHT31;60221;45.696;16.076;2022-07-21T10:43:35;34.16;29.79
72288;SHT31;60221;45.696;16.076;2022-07-21T10:45:40;34.14;30.12
72288;SHT31;60221;45.696;16.076;2022-07-21T10:50:58;34.24;29.20
72288;SHT31;60221;45.696;16.076;2022-07-21T10:53:24;34.16;29.02
72288;SHT31;60221;45.696;16.076;2022-07-21T10:55:53;34.10;29.30
72288;SHT31;60221;45.696;16.076;2022-07-21T10:58:32;34.04;29.45
72288;SHT31;60221;45.696;16.076;2022-07-21T11:01:24;33.99;29.56
72288;SHT31;60221;45.696;16.076;2022-07-21T11:04:11;33.95;29.55
72288;SHT31;60221;45.696;16.076;2022-07-21T11:06:41;33.97;28.64
72288;SHT31;60221;45.696;16.076;2022-07-21T11:09:15;33.96;29.23
72288;SHT31;60221;45.696;16.076;2022-07-21T11:12:01;34.02;27.77
72288;SHT31;60221;45.696;16.076;2022-07-21T11:14:40;34.07;27.77
72288;SHT31;60221;45.696;16.076;2022-07-21T11:17:43;34.07;27.94
72288;SHT31;60221;45.696;16.076;2022-07-21T11:19:48;34.09;28.00
72288;SHT31;60221;45.696;16.076;2022-07-21T11:22:28;34.09;28.29
72288;SHT31;60221;45.696;16.076;2022-07-21T11:25:04;34.10;27.99
72288;SHT31;60221;45.696;16.076;2022-07-21T11:27:35;34.14;28.21
72288;SHT31;60221;45.696;16.076;2022-07-21T11:30:06;34.14;28.20
72288;SHT31;60221;45.696;16.076;2022-07-21T11:32:34;34.17;27.66
72288;SHT31;60221;45.696;16.076;2022-07-21T11:35:06;34.14;27.61
72288;SHT31;60221;45.696;16.076;2022-07-21T11:37:40;34.20;27.60
72288;SHT31;60221;45.696;16.076;2022-07-21T11:40:14;34.27;26.72
72288;SHT31;60221;45.696;16.076;2022-07-21T11:42:44;34.41;26.88
72288;SHT31;60221;45.696;16.076;2022-07-21T11:45:11;34.55;26.59
72288;SHT31;60221;45.696;16.076;2022-07-21T11:47:38;34.62;26.30
72288;SHT31;60221;45.696;16.076;2022-07-21T11:50:09;34.62;26.39
72288;SHT31;60221;45.696;16.076;2022-07-21T11:52:39;34.72;26.57
72288;SHT31;60221;45.696;16.076;2022-07-21T11:55:09;34.81;26.20
72288;SHT31;60221;45.696;16.076;2022-07-21T11:57:45;34.82;26.24
72288;SHT31;60221;45.696;16.076;2022-07-21T12:00:14;34.92;25.59
72288;SHT31;60221;45.696;16.076;2022-07-21T12:02:40;35.02;25.84
72288;SHT31;60221;45.696;16.076;2022-07-21T12:05:09;35.10;25.76
72288;SHT31;60221;45.696;16.076;2022-07-21T12:07:47;35.17;25.30
72288;SHT31;60221;45.696;16.076;2022-07-21T12:10:29;35.26;25.14
72288;SHT31;60221;45.696;16.076;2022-07-21T12:13:05;35.28;25.32
72288;SHT31;60221;45.696;16.076;2022-07-21T12:15:36;35.34;25.54
72288;SHT31;60221;45.696;16.076;2022-07-21T12:18:17;35.42;25.37
72288;SHT31;60221;45.696;16.076;2022-07-21T12:20:40;35.50;25.26
72288;SHT31;60221;45.696;16.076;2022-07-21T12:23:29;35.59;25.11
72288;SHT31;60221;45.696;16.076;2022-07-21T12:25:59;35.67;24.70
72288;SHT31;60221;45.696;16.076;2022-07-21T12:28:45;35.76;24.61
72288;SHT31;60221;45.696;16.076;2022-07-21T12:31:16;35.83;24.84
72288;SHT31;60221;45.696;16.076;2022-07-21T12:33:44;35.78;24.93
72288;SHT31;60221;45.696;16.076;2022-07-21T12:36:10;35.76;24.38
72288;SHT31;60221;45.696;16.076;2022-07-21T12:38:48;35.71;24.65
72288;SHT31;60221;45.696;16.076;2022-07-21T12:41:18;35.70;24.70
72288;SHT31;60221;45.696;16.076;2022-07-21T12:43:56;35.73;24.82
72288;SHT31;60221;45.696;16.076;2022-07-21T12:46:33;35.81;24.69
72288;SHT31;60221;45.696;16.076;2022-07-21T12:49:09;35.87;24.84
72288;SHT31;60221;45.696;16.076;2022-07-21T12:51:36;35.90;24.94
72288;SHT31;60221;45.696;16.076;2022-07-21T12:54:03;35.92;25.27
72288;SHT31;60221;45.696;16.076;2022-07-21T12:56:33;35.97;25.20
72288;SHT31;60221;45.696;16.076;2022-07-21T12:59:00;35.97;25.14
72288;SHT31;60221;45.696;16.076;2022-07-21T13:01:29;35.95;25.00
72288;SHT31;60221;45.696;16.076;2022-07-21T13:03:57;35.94;25.19
72288;SHT31;60221;45.696;16.076;2022-07-21T13:06:23;35.88;25.18
72288;SHT31;60221;45.696;16.076;2022-07-21T13:08:51;35.87;25.14
72288;SHT31;60221;45.696;16.076;2022-07-21T13:11:19;35.90;24.44
72288;SHT31;60221;45.696;16.076;2022-07-21T13:13:49;35.90;24.51
72288;SHT31;60221;45.696;16.076;2022-07-21T13:16:17;35.88;24.16
72288;SHT31;60221;45.696;16.076;2022-07-21T13:18:44;35.92;24.36
72288;SHT31;60221;45.696;16.076;2022-07-21T13:21:10;35.91;24.50
72288;SHT31;60221;45.696;16.076;2022-07-21T13:23:37;35.94;24.79
72288;SHT31;60221;45.696;16.076;2022-07-21T13:26:04;35.99;25.00
72288;SHT31;60221;45.696;16.076;2022-07-21T13:28:30;36.04;25.09
72288;SHT31;60221;45.696;16.076;2022-07-21T13:30:56;36.05;24.86
72288;SHT31;60221;45.696;16.076;2022-07-21T13:33:22;36.05;24.74
72288;SHT31;60221;45.696;16.076;2022-07-21T13:35:48;36.04;24.77
72288;SHT31;60221;45.696;16.076;2022-07-21T13:38:14;36.08;24.27
72288;SHT31;60221;45.696;16.076;2022-07-21T13:40:42;36.12;24.20
72288;SHT31;60221;45.696;16.076;2022-07-21T13:43:08;36.14;24.17
72288;SHT31;60221;45.696;16.076;2022-07-21T13:45:34;36.14;24.32
72288;SHT31;60221;45.696;16.076;2022-07-21T13:48:01;36.07;24.19
72288;SHT31;60221;45.696;16.076;2022-07-21T13:50:27;36.01;24.14
72288;SHT31;60221;45.696;16.076;2022-07-21T13:52:54;35.95;24.39
72288;SHT31;60221;45.696;16.076;2022-07-21T13:55:20;35.91;24.32
72288;SHT31;60221;45.696;16.076;2022-07-21T13:57:46;35.92;24.30
72288;SHT31;60221;45.696;16.076;2022-07-21T14:00:16;35.99;24.22
72288;SHT31;60221;45.696;16.076;2022-07-21T14:02:42;35.98;24.12
72288;SHT31;60221;45.696;16.076;2022-07-21T14:05:10;35.95;24.57
72288;SHT31;60221;45.696;16.076;2022-07-21T14:07:36;35.97;24.38
72288;SHT31;60221;45.696;16.076;2022-07-21T14:10:04;36.01;23.99
72288;SHT31;60221;45.696;16.076;2022-07-21T14:12:31;36.01;23.85
72288;SHT31;60221;45.696;16.076;2022-07-21T14:14:57;36.05;22.95
72288;SHT31;60221;45.696;16.076;2022-07-21T14:17:23;35.99;23.85
72288;SHT31;60221;45.696;16.076;2022-07-21T14:19:49;35.97;23.98
72288;SHT31;60221;45.696;16.076;2022-07-21T14:22:16;35.95;23.70
72288;SHT31;60221;45.696;16.076;2022-07-21T14:24:44;35.91;23.45
72288;SHT31;60221;45.696;16.076;2022-07-21T14:27:28;35.81;22.88
72288;SHT31;60221;45.696;16.076;2022-07-21T14:29:55;35.76;22.57
72288;SHT31;60221;45.696;16.076;2022-07-21T14:32:21;35.71;22.97
72288;SHT31;60221;45.696;16.076;2022-07-21T14:34:52;35.64;23.10
72288;SHT31;60221;45.696;16.076;2022-07-21T14:37:21;35.54;23.40
72288;SHT31;60221;45.696;16.076;2022-07-21T14:39:49;35.51;23.11
72288;SHT31;60221;45.696;16.076;2022-07-21T14:42:17;35.44;23.30
72288;SHT31;60221;45.696;16.076;2022-07-21T14:44:44;35.40;23.51
72288;SHT31;60221;45.696;16.076;2022-07-21T14:47:12;35.37;23.70
72288;SHT31;60221;45.696;16.076;2022-07-21T14:49:39;35.39;24.01
72288;SHT31;60221;45.696;16.076;2022-07-21T14:52:05;35.40;23.94
72288;SHT31;60221;45.696;16.076;2022-07-21T14:54:31;35.39;23.29
72288;SHT31;60221;45.696;16.076;2022-07-21T14:56:58;35.42;23.22
72288;SHT31;60221;45.696;16.076;2022-07-21T14:59:25;35.33;23.09
72288;SHT31;60221;45.696;16.076;2022-07-21T15:01:51;35.30;23.00
72288;SHT31;60221;45.696;16.076;2022-07-21T15:04:17;35.29;22.86
72288;SHT31;60221;45.696;16.076;2022-07-21T15:06:46;35.25;23.22
72288;SHT31;60221;45.696;16.076;2022-07-21T15:09:13;35.20;23.75
72288;SHT31;60221;45.696;16.076;2022-07-21T15:11:39;35.13;23.51
72288;SHT31;60221;45.696;16.076;2022-07-21T15:14:05;35.06;23.29
72288;SHT31;60221;45.696;16.076;2022-07-21T15:16:32;35.01;23.52
72288;SHT31;60221;45.696;16.076;2022-07-21T15:18:58;34.95;23.67
72288;SHT31;60221;45.696;16.076;2022-07-21T15:21:24;34.95;24.16
72288;SHT31;60221;45.696;16.076;2022-07-21T15:23:50;34.91;24.80
72288;SHT31;60221;45.696;16.076;2022-07-21T15:26:16;34.92;24.67
72288;SHT31;60221;45.696;16.076;2022-07-21T15:28:42;34.91;24.58
72288;SHT31;60221;45.696;16.076;2022-07-21T15:31:08;34.85;24.57
72288;SHT31;60221;45.696;16.076;2022-07-21T15:33:35;34.78;24.66